sensor_id;sensor_type;location;lat;lon;timestamp;temperature;humidity
53053;DHT22;38934;52.690;6.184;2023-08-24T00:00:42;16.90;99.90
53053;DHT22;38934;52.690;6.184;2023-08-24T00:03:08;16.40;99.90
53053;DHT22;38934;52.690;6.184;2023-08-24T00:05:35;16.30;99.90
53053;DHT22;38934;52.690;6.184;2023-08-24T00:08:04;16.30;99.90
53053;DHT22;38934;52.690;6.184;2023-08-24T00:10:30;16.30;99.90
53053;DHT22;38934;52.690;6.184;2023-08-24T00:12:55;16.40;99.90
53053;DHT22;38934;52.690;6.184;2023-08-24T00:15:21;17.10;99.90
53053;DHT22;38934;52.690;6.184;2023-08-24T00:17:47;16.30;99.90
53053;DHT22;38934;52.690;6.184;2023-08-24T00:20:13;16.20;99.90
53053;DHT22;38934;52.690;6.184;2023-08-24T00:22:39;16.20;99.90
53053;DHT22;38934;52.690;6.184;2023-08-24T00:25:06;16.20;99.90
53053;DHT22;38934;52.690;6.184;2023-08-24T00:27:32;16.20;99.90
53053;DHT22;38934;52.690;6.184;2023-08-24T00:29:58;16.20;99.90
53053;DHT22;38934;52.690;6.184;2023-08-24T00:32:23;17.00;99.90
53053;DHT22;38934;52.690;6.184;2023-08-24T00:34:49;16.20;99.90
53053;DHT22;38934;52.690;6.184;2023-08-24T00:37:17;16.70;99.90
53053;DHT22;38934;52.690;6.184;2023-08-24T00:39:43;16.10;99.90
53053;DHT22;38934;52.690;6.184;2023-08-24T00:42:08;16.10;99.90
53053;DHT22;38934;52.690;6.184;2023-08-24T00:44:38;16.10;99.90
53053;DHT22;38934;52.690;6.184;2023-08-24T00:47:04;16.20;99.90
53053;DHT22;38934;52.690;6.184;2023-08-24T00:49:30;16.10;99.90
53053;DHT22;38934;52.690;6.184;2023-08-24T00:51:56;16.10;99.90
53053;DHT22;38934;52.690;6.184;2023-08-24T00:54:22;16.10;99.90
53053;DHT22;38934;52.690;6.184;2023-08-24T00:56:48;16.10;99.90
53053;DHT22;38934;52.690;6.184;2023-08-24T00:59:13;16.10;99.90
53053;DHT22;38934;52.690;6.184;2023-08-24T01:01:39;16.90;99.90
53053;DHT22;38934;52.690;6.184;2023-08-24T01:04:07;16.10;99.90
53053;DHT22;38934;52.690;6.184;2023-08-24T01:06:33;16.20;99.90
53053;DHT22;38934;52.690;6.184;2023-08-24T01:08:59;16.20;99.90
53053;DHT22;38934;52.690;6.184;2023-08-24T01:11:43;16.20;99.90
53053;DHT22;38934;52.690;6.184;2023-08-24T01:14:29;16.20;99.90
53053;DHT22;38934;52.690;6.184;2023-08-24T01:16:58;16.30;99.90
53053;DHT22;38934;52.690;6.184;2023-08-24T01:19:40;16.30;99.90
53053;DHT22;38934;52.690;6.184;2023-08-24T01:25:06;16.40;99.90
53053;DHT22;38934;52.690;6.184;2023-08-24T01:27:35;16.20;99.90
53053;DHT22;38934;52.690;6.184;2023-08-24T01:30:05;16.40;99.90
53053;DHT22;38934;52.690;6.184;2023-08-24T01:32:32;16.40;99.90
53053;DHT22;38934;52.690;6.184;2023-08-24T01:34:59;16.40;99.90
53053;DHT22;38934;52.690;6.184;2023-08-24T01:37:26;16.50;99.90
53053;DHT22;38934;52.690;6.184;2023-08-24T01:40:13;16.50;99.90
53053;DHT22;38934;52.690;6.184;2023-08-24T01:42:59;16.50;99.90
53053;DHT22;38934;52.690;6.184;2023-08-24T01:45:29;16.60;99.90
53053;DHT22;38934;52.690;6.184;2023-08-24T01:47:55;16.60;99.90
53053;DHT22;38934;52.690;6.184;2023-08-24T01:50:22;16.60;99.90
53053;DHT22;38934;52.690;6.184;2023-08-24T01:52:49;16.70;99.90
53053;DHT22;38934;52.690;6.184;2023-08-24T01:55:18;16.60;99.90
53053;DHT22;38934;52.690;6.184;2023-08-24T01:57:44;16.60;99.90
53053;DHT22;38934;52.690;6.184;2023-08-24T02:00:10;16.80;99.90
53053;DHT22;38934;52.690;6.184;2023-08-24T02:02:36;16.60;99.90
53053;DHT22;38934;52.690;6.184;2023-08-24T02:05:02;16.60;99.90
53053;DHT22;38934;52.690;6.184;2023-08-24T02:07:29;16.60;99.90
53053;DHT22;38934;52.690;6.184;2023-08-24T02:09:54;16.90;99.90
53053;DHT22;38934;52.690;6.184;2023-08-24T02:12:20;17.30;99.90
53053;DHT22;38934;52.690;6.184;2023-08-24T02:14:46;16.60;99.90
53053;DHT22;38934;52.690;6.184;2023-08-24T02:17:11;16.50;99.90
53053;DHT22;38934;52.690;6.184;2023-08-24T02:19:40;16.60;99.90
53053;DHT22;38934;52.690;6.184;2023-08-24T02:22:08;16.50;99.90
53053;DHT22;38934;52.690;6.184;2023-08-24T02:24:34;16.50;99.90
53053;DHT22;38934;52.690;6.184;2023-08-24T02:27:00;16.50;99.90
53053;DHT22;38934;52.690;6.184;2023-08-24T02:29:26;16.30;99.90
53053;DHT22;38934;52.690;6.184;2023-08-24T02:31:53;16.50;99.90
53053;DHT22;38934;52.690;6.184;2023-08-24T02:34:19;16.50;99.90
53053;DHT22;38934;52.690;6.184;2023-08-24T02:36:44;15.90;99.90
53053;DHT22;38934;52.690;6.184;2023-08-24T02:39:10;16.50;99.90
53053;DHT22;38934;52.690;6.184;2023-08-24T02:41:36;16.50;99.90
53053;DHT22;38934;52.690;6.184;2023-08-24T02:44:02;17.10;99.90
53053;DHT22;38934;52.690;6.184;2023-08-24T02:46:28;16.50;99.90
53053;DHT22;38934;52.690;6.184;2023-08-24T02:48:53;16.40;99.90
53053;DHT22;38934;52.690;6.184;2023-08-24T02:51:21;16.40;99.90
53053;DHT22;38934;52.690;6.184;2023-08-24T02:53:47;16.40;99.90
53053;DHT22;38934;52.690;6.184;2023-08-24T02:56:13;16.40;99.90
53053;DHT22;38934;52.690;6.184;2023-08-24T02:58:38;16.40;99.90
53053;DHT22;38934;52.690;6.184;2023-08-24T03:01:05;16.40;99.90
53053;DHT22;38934;52.690;6.184;2023-08-24T03:03:33;16.30;99.90
53053;DHT22;38934;52.690;6.184;2023-08-24T03:06:01;16.30;99.90
53053;DHT22;38934;52.690;6.184;2023-08-24T03:08:32;16.30;99.90
53053;DHT22;38934;52.690;6.184;2023-08-24T03:10:58;16.30;99.90
53053;DHT22;38934;52.690;6.184;2023-08-24T03:13:27;16.20;99.90
53053;DHT22;38934;52.690;6.184;2023-08-24T03:15:53;16.30;99.90
53053;DHT22;38934;52.690;6.184;2023-08-24T03:18:20;16.40;99.90
53053;DHT22;38934;52.690;6.184;2023-08-24T03:20:47;16.20;99.90
53053;DHT22;38934;52.690;6.184;2023-08-24T03:23:13;16.20;99.90
53053;DHT22;38934;52.690;6.184;2023-08-24T03:25:40;16.20;99.90
53053;DHT22;38934;52.690;6.184;2023-08-24T03:28:07;16.80;99.90
53053;DHT22;38934;52.690;6.184;2023-08-24T03:30:37;16.90;99.90
53053;DHT22;38934;52.690;6.184;2023-08-24T03:33:04;16.40;99.90
53053;DHT22;38934;52.690;6.184;2023-08-24T03:35:33;16.10;99.90
53053;DHT22;38934;52.690;6.184;2023-08-24T03:37:59;16.10;99.90
53053;DHT22;38934;52.690;6.184;2023-08-24T03:40:25;15.90;99.90
53053;DHT22;38934;52.690;6.184;2023-08-24T03:42:51;16.00;99.90
53053;DHT22;38934;52.690;6.184;2023-08-24T03:45:18;16.60;99.90
53053;DHT22;38934;52.690;6.184;2023-08-24T03:47:43;15.90;99.90
53053;DHT22;38934;52.690;6.184;2023-08-24T03:50:09;16.50;99.90
53053;DHT22;38934;52.690;6.184;2023-08-24T03:52:35;16.20;99.90
53053;DHT22;38934;52.690;6.184;2023-08-24T03:55:00;15.80;99.90
53053;DHT22;38934;52.690;6.184;2023-08-24T03:57:27;15.80;99.90
53053;DHT22;38934;52.690;6.184;2023-08-24T03:59:53;15.80;99.90
53053;DHT22;38934;52.690;6.184;2023-08-24T04:02:19;15.80;99.90
53053;DHT22;38934;52.690;6.184;2023-08-24T04:04:45;15.80;99.90
53053;DHT22;38934;52.690;6.184;2023-08-24T04:07:11;15.70;99.90
53053;DHT22;38934;52.690;6.184;2023-08-24T04:09:36;15.70;99.90
53053;DHT22;38934;52.690;6.184;2023-08-24T04:12:02;15.70;99.90
53053;DHT22;38934;52.690;6.184;2023-08-24T04:14:28;15.60;99.90
53053;DHT22;38934;52.690;6.184;2023-08-24T04:16:53;15.60;99.90
53053;DHT22;38934;52.690;6.184;2023-08-24T04:19:19;15.60;99.90
53053;DHT22;38934;52.690;6.184;2023-08-24T04:21:45;15.50;99.90
53053;DHT22;38934;52.690;6.184;2023-08-24T04:24:10;15.50;99.90
53053;DHT22;38934;52.690;6.184;2023-08-24T04:26:36;15.50;99.90
53053;DHT22;38934;52.690;6.184;2023-08-24T04:29:02;15.50;99.90
53053;DHT22;38934;52.690;6.184;2023-08-24T04:31:27;15.50;99.90
53053;DHT22;38934;52.690;6.184;2023-08-24T04:33:53;15.70;99.90
53053;DHT22;38934;52.690;6.184;2023-08-24T04:36:18;15.40;99.90
53053;DHT22;38934;52.690;6.184;2023-08-24T04:38:44;15.40;99.90
53053;DHT22;38934;52.690;6.184;2023-08-24T04:41:10;15.40;99.90
53053;DHT22;38934;52.690;6.184;2023-08-24T04:43:37;15.70;99.90
53053;DHT22;38934;52.690;6.184;2023-08-24T04:46:03;15.40;99.90
53053;DHT22;38934;52.690;6.184;2023-08-24T04:48:29;15.40;99.90
53053;DHT22;38934;52.690;6.184;2023-08-24T04:51:00;15.40;99.90
53053;DHT22;38934;52.690;6.184;2023-08-24T04:53:27;15.30;99.90
53053;DHT22;38934;52.690;6.184;2023-08-24T04:55:52;15.40;99.90
53053;DHT22;38934;52.690;6.184;2023-08-24T04:58:19;15.40;99.90
53053;DHT22;38934;52.690;6.184;2023-08-24T05:00:44;15.40;99.90
53053;DHT22;38934;52.690;6.184;2023-08-24T05:03:10;15.50;99.90
53053;DHT22;38934;52.690;6.184;2023-08-24T05:05:36;16.20;99.90
53053;DHT22;38934;52.690;6.184;2023-08-24T05:08:03;15.50;99.90
53053;DHT22;38934;52.690;6.184;2023-08-24T05:10:32;15.50;99.90
53053;DHT22;38934;52.690;6.184;2023-08-24T05:12:58;15.50;99.90
53053;DHT22;38934;52.690;6.184;2023-08-24T05:15:24;15.60;99.90
53053;DHT22;38934;52.690;6.184;2023-08-24T05:17:50;15.60;99.90
53053;DHT22;38934;52.690;6.184;2023-08-24T05:20:19;15.60;99.90
53053;DHT22;38934;52.690;6.184;2023-08-24T05:22:44;15.70;99.90
53053;DHT22;38934;52.690;6.184;2023-08-24T05:25:10;16.20;99.90
53053;DHT22;38934;52.690;6.184;2023-08-24T05:27:37;15.80;99.90
53053;DHT22;38934;52.690;6.184;2023-08-24T05:30:03;15.90;99.90
53053;DHT22;38934;52.690;6.184;2023-08-24T05:32:31;15.80;99.90
53053;DHT22;38934;52.690;6.184;2023-08-24T05:34:56;15.90;99.90
53053;DHT22;38934;52.690;6.184;2023-08-24T05:37:23;15.90;99.90
53053;DHT22;38934;52.690;6.184;2023-08-24T05:39:48;15.90;99.90
53053;DHT22;38934;52.690;6.184;2023-08-24T05:42:14;16.00;99.90
53053;DHT22;38934;52.690;6.184;2023-08-24T05:44:40;16.00;99.90
53053;DHT22;38934;52.690;6.184;2023-08-24T05:47:05;16.30;99.90
53053;DHT22;38934;52.690;6.184;2023-08-24T05:49:31;16.10;99.90
53053;DHT22;38934;52.690;6.184;2023-08-24T05:51:57;16.20;99.90
53053;DHT22;38934;52.690;6.184;2023-08-24T05:54:22;16.40;99.90
53053;DHT22;38934;52.690;6.184;2023-08-24T05:56:48;16.50;99.90
53053;DHT22;38934;52.690;6.184;2023-08-24T05:59:14;16.70;99.90
53053;DHT22;38934;52.690;6.184;2023-08-24T06:01:41;16.70;99.90
53053;DHT22;38934;52.690;6.184;2023-08-24T06:04:11;17.00;99.90
53053;DHT22;38934;52.690;6.184;2023-08-24T06:06:37;16.80;99.90
53053;DHT22;38934;52.690;6.184;2023-08-24T06:09:03;16.80;99.90
53053;DHT22;38934;52.690;6.184;2023-08-24T06:11:32;16.70;99.90
53053;DHT22;38934;52.690;6.184;2023-08-24T06:13:58;16.80;99.90
53053;DHT22;38934;52.690;6.184;2023-08-24T06:16:24;17.10;99.90
53053;DHT22;38934;52.690;6.184;2023-08-24T06:18:50;16.70;99.90
53053;DHT22;38934;52.690;6.184;2023-08-24T06:21:16;16.80;99.90
53053;DHT22;38934;52.690;6.184;2023-08-24T06:23:42;16.90;99.90
53053;DHT22;38934;52.690;6.184;2023-08-24T06:26:07;16.90;99.90
53053;DHT22;38934;52.690;6.184;2023-08-24T06:28:33;17.00;99.90
53053;DHT22;38934;52.690;6.184;2023-08-24T06:31:00;17.10;99.90
53053;DHT22;38934;52.690;6.184;2023-08-24T06:33:31;17.10;99.90
53053;DHT22;38934;52.690;6.184;2023-08-24T06:35:58;17.20;99.90
53053;DHT22;38934;52.690;6.184;2023-08-24T06:38:24;17.20;99.90
53053;DHT22;38934;52.690;6.184;2023-08-24T06:40:50;17.30;99.90
53053;DHT22;38934;52.690;6.184;2023-08-24T06:43:15;17.40;99.90
53053;DHT22;38934;52.690;6.184;2023-08-24T06:45:41;17.40;99.90
53053;DHT22;38934;52.690;6.184;2023-08-24T06:48:07;17.50;99.90
53053;DHT22;38934;52.690;6.184;2023-08-24T06:50:35;17.60;99.90
53053;DHT22;38934;52.690;6.184;2023-08-24T06:53:03;17.60;99.90
53053;DHT22;38934;52.690;6.184;2023-08-24T06:55:29;17.70;99.90
53053;DHT22;38934;52.690;6.184;2023-08-24T06:57:54;17.90;99.90
53053;DHT22;38934;52.690;6.184;2023-08-24T07:00:20;17.90;99.90
53053;DHT22;38934;52.690;6.184;2023-08-24T07:02:49;17.90;99.90
53053;DHT22;38934;52.690;6.184;2023-08-24T07:05:16;18.00;99.90
53053;DHT22;38934;52.690;6.184;2023-08-24T07:07:45;18.10;99.90
53053;DHT22;38934;52.690;6.184;2023-08-24T07:10:11;18.50;99.90
53053;DHT22;38934;52.690;6.184;2023-08-24T07:12:37;18.20;99.90
53053;DHT22;38934;52.690;6.184;2023-08-24T07:15:05;18.30;99.90
53053;DHT22;38934;52.690;6.184;2023-08-24T07:17:31;18.40;99.90
53053;DHT22;38934;52.690;6.184;2023-08-24T07:19:56;18.40;99.90
53053;DHT22;38934;52.690;6.184;2023-08-24T07:22:22;18.50;99.90
53053;DHT22;38934;52.690;6.184;2023-08-24T07:24:48;18.60;99.90
53053;DHT22;38934;52.690;6.184;2023-08-24T07:27:17;18.60;99.90
53053;DHT22;38934;52.690;6.184;2023-08-24T07:29:43;18.80;99.90
53053;DHT22;38934;52.690;6.184;2023-08-24T07:32:09;18.80;99.90
53053;DHT22;38934;52.690;6.184;2023-08-24T07:34:35;18.90;99.90
53053;DHT22;38934;52.690;6.184;2023-08-24T07:37:00;19.00;99.90
53053;DHT22;38934;52.690;6.184;2023-08-24T07:39:26;19.00;99.90
53053;DHT22;38934;52.690;6.184;2023-08-24T07:41:51;19.60;99.90
53053;DHT22;38934;52.690;6.184;2023-08-24T07:44:17;19.20;99.90
53053;DHT22;38934;52.690;6.184;2023-08-24T07:46:43;19.30;99.90
53053;DHT22;38934;52.690;6.184;2023-08-24T07:49:08;19.40;99.90
53053;DHT22;38934;52.690;6.184;2023-08-24T07:51:34;19.50;99.90
53053;DHT22;38934;52.690;6.184;2023-08-24T07:54:00;19.60;99.90
53053;DHT22;38934;52.690;6.184;2023-08-24T07:56:26;19.70;99.90
53053;DHT22;38934;52.690;6.184;2023-08-24T07:58:51;19.70;99.90
53053;DHT22;38934;52.690;6.184;2023-08-24T08:01:17;19.80;99.90
53053;DHT22;38934;52.690;6.184;2023-08-24T08:03:43;19.90;99.90
53053;DHT22;38934;52.690;6.184;2023-08-24T08:06:08;20.10;99.90
53053;DHT22;38934;52.690;6.184;2023-08-24T08:08:34;20.00;99.90
53053;DHT22;38934;52.690;6.184;2023-08-24T08:11:01;20.10;99.90
53053;DHT22;38934;52.690;6.184;2023-08-24T08:13:28;20.20;99.90
53053;DHT22;38934;52.690;6.184;2023-08-24T08:15:54;20.30;99.90
53053;DHT22;38934;52.690;6.184;2023-08-24T08:18:19;20.40;99.90
53053;DHT22;38934;52.690;6.184;2023-08-24T08:20:45;20.40;99.90
53053;DHT22;38934;52.690;6.184;2023-08-24T08:23:11;20.60;99.90
53053;DHT22;38934;52.690;6.184;2023-08-24T08:25:36;20.70;99.90
53053;DHT22;38934;52.690;6.184;2023-08-24T08:28:03;20.90;99.90
53053;DHT22;38934;52.690;6.184;2023-08-24T08:30:29;21.00;99.90
53053;DHT22;38934;52.690;6.184;2023-08-24T08:32:54;21.20;99.90
53053;DHT22;38934;52.690;6.184;2023-08-24T08:35:22;21.30;99.90
53053;DHT22;38934;52.690;6.184;2023-08-24T08:37:47;21.50;99.90
53053;DHT22;38934;52.690;6.184;2023-08-24T08:40:15;21.80;99.90
53053;DHT22;38934;52.690;6.184;2023-08-24T08:42:41;21.90;99.90
53053;DHT22;38934;52.690;6.184;2023-08-24T08:45:10;22.10;99.90
53053;DHT22;38934;52.690;6.184;2023-08-24T08:47:37;22.30;99.90
53053;DHT22;38934;52.690;6.184;2023-08-24T08:50:03;22.50;99.90
53053;DHT22;38934;52.690;6.184;2023-08-24T08:52:29;22.70;99.90
53053;DHT22;38934;52.690;6.184;2023-08-24T08:54:55;22.90;99.90
53053;DHT22;38934;52.690;6.184;2023-08-24T08:57:23;23.10;99.90
53053;DHT22;38934;52.690;6.184;2023-08-24T08:59:51;23.30;99.90
53053;DHT22;38934;52.690;6.184;2023-08-24T09:02:19;23.40;99.90
53053;DHT22;38934;52.690;6.184;2023-08-24T09:04:46;23.50;99.90
53053;DHT22;38934;52.690;6.184;2023-08-24T09:07:16;23.70;99.90
53053;DHT22;38934;52.690;6.184;2023-08-24T09:09:42;23.80;99.90
53053;DHT22;38934;52.690;6.184;2023-08-24T09:12:08;23.80;99.90
53053;DHT22;38934;52.690;6.184;2023-08-24T09:14:34;23.90;99.90
53053;DHT22;38934;52.690;6.184;2023-08-24T09:17:00;23.90;99.90
53053;DHT22;38934;52.690;6.184;2023-08-24T09:19:30;23.90;99.90
53053;DHT22;38934;52.690;6.184;2023-08-24T09:21:57;23.90;99.90
53053;DHT22;38934;52.690;6.184;2023-08-24T09:24:33;23.90;99.90
53053;DHT22;38934;52.690;6.184;2023-08-24T09:27:00;23.90;99.90
53053;DHT22;38934;52.690;6.184;2023-08-24T09:29:26;23.90;99.90
53053;DHT22;38934;52.690;6.184;2023-08-24T09:31:52;23.90;99.90
53053;DHT22;38934;52.690;6.184;2023-08-24T09:34:22;23.80;99.90
53053;DHT22;38934;52.690;6.184;2023-08-24T09:36:51;23.80;99.90
53053;DHT22;38934;52.690;6.184;2023-08-24T09:39:17;23.60;99.90
53053;DHT22;38934;52.690;6.184;2023-08-24T09:41:46;23.50;99.90
53053;DHT22;38934;52.690;6.184;2023-08-24T09:44:17;23.50;99.90
53053;DHT22;38934;52.690;6.184;2023-08-24T09:46:43;23.40;99.90
53053;DHT22;38934;52.690;6.184;2023-08-24T09:49:10;23.30;99.90
53053;DHT22;38934;52.690;6.184;2023-08-24T09:51:37;23.30;99.90
53053;DHT22;38934;52.690;6.184;2023-08-24T09:54:07;23.20;99.90
53053;DHT22;38934;52.690;6.184;2023-08-24T09:56:37;23.10;99.90
53053;DHT22;38934;52.690;6.184;2023-08-24T09:59:14;23.00;99.90
53053;DHT22;38934;52.690;6.184;2023-08-24T10:01:46;23.00;99.90
53053;DHT22;38934;52.690;6.184;2023-08-24T10:04:14;22.90;99.90
53053;DHT22;38934;52.690;6.184;2023-08-24T10:06:40;22.90;99.90
53053;DHT22;38934;52.690;6.184;2023-08-24T10:09:14;22.90;99.90
53053;DHT22;38934;52.690;6.184;2023-08-24T10:11:45;22.80;99.90
53053;DHT22;38934;52.690;6.184;2023-08-24T10:14:32;22.80;99.90
53053;DHT22;38934;52.690;6.184;2023-08-24T10:16:59;22.70;99.90
53053;DHT22;38934;52.690;6.184;2023-08-24T10:19:25;22.60;99.90
53053;DHT22;38934;52.690;6.184;2023-08-24T10:21:54;22.60;99.90
53053;DHT22;38934;52.690;6.184;2023-08-24T10:24:22;22.50;99.90
53053;DHT22;38934;52.690;6.184;2023-08-24T10:26:48;22.60;99.90
53053;DHT22;38934;52.690;6.184;2023-08-24T10:29:16;22.60;99.90
53053;DHT22;38934;52.690;6.184;2023-08-24T10:31:42;22.50;99.90
53053;DHT22;38934;52.690;6.184;2023-08-24T10:34:09;22.50;99.90
53053;DHT22;38934;52.690;6.184;2023-08-24T10:36:34;22.50;99.90
53053;DHT22;38934;52.690;6.184;2023-08-24T10:39:03;22.50;99.90
53053;DHT22;38934;52.690;6.184;2023-08-24T10:41:50;22.50;99.90
53053;DHT22;38934;52.690;6.184;2023-08-24T10:44:21;22.50;99.90
53053;DHT22;38934;52.690;6.184;2023-08-24T10:49:32;22.30;99.90
53053;DHT22;38934;52.690;6.184;2023-08-24T10:51:58;22.50;99.90
53053;DHT22;38934;52.690;6.184;2023-08-24T10:54:45;22.50;99.90
53053;DHT22;38934;52.690;6.184;2023-08-24T10:57:20;22.60;99.90
53053;DHT22;38934;52.690;6.184;2023-08-24T11:00:10;22.70;99.90
53053;DHT22;38934;52.690;6.184;2023-08-24T11:02:44;22.80;99.90
53053;DHT22;38934;52.690;6.184;2023-08-24T11:05:20;22.80;99.90
53053;DHT22;38934;52.690;6.184;2023-08-24T11:08:05;22.90;99.90
53053;DHT22;38934;52.690;6.184;2023-08-24T11:10:51;23.00;99.90
53053;DHT22;38934;52.690;6.184;2023-08-24T11:13:19;23.10;99.90
53053;DHT22;38934;52.690;6.184;2023-08-24T11:15:49;23.10;99.90
53053;DHT22;38934;52.690;6.184;2023-08-24T11:18:27;23.20;99.90
53053;DHT22;38934;52.690;6.184;2023-08-24T11:21:11;23.40;99.90
53053;DHT22;38934;52.690;6.184;2023-08-24T11:23:37;23.50;99.90
53053;DHT22;38934;52.690;6.184;2023-08-24T11:26:04;23.70;99.90
53053;DHT22;38934;52.690;6.184;2023-08-24T11:28:30;23.80;99.90
53053;DHT22;38934;52.690;6.184;2023-08-24T11:30:57;23.90;99.90
53053;DHT22;38934;52.690;6.184;2023-08-24T11:33:33;24.00;99.90
53053;DHT22;38934;52.690;6.184;2023-08-24T11:36:01;24.10;99.90
53053;DHT22;38934;52.690;6.184;2023-08-24T11:41:13;24.30;99.90
53053;DHT22;38934;52.690;6.184;2023-08-24T11:43:40;24.30;99.90
53053;DHT22;38934;52.690;6.184;2023-08-24T11:46:05;24.10;99.90
53053;DHT22;38934;52.690;6.184;2023-08-24T11:48:31;24.20;99.90
53053;DHT22;38934;52.690;6.184;2023-08-24T11:50:58;24.20;99.90
53053;DHT22;38934;52.690;6.184;2023-08-24T11:53:24;24.20;99.90
53053;DHT22;38934;52.690;6.184;2023-08-24T11:55:52;24.20;99.90
53053;DHT22;38934;52.690;6.184;2023-08-24T11:58:18;24.20;99.90
53053;DHT22;38934;52.690;6.184;2023-08-24T12:00:45;24.20;99.90
53053;DHT22;38934;52.690;6.184;2023-08-24T12:03:11;24.20;99.90
53053;DHT22;38934;52.690;6.184;2023-08-24T12:05:37;24.20;99.90
53053;DHT22;38934;52.690;6.184;2023-08-24T12:08:03;24.10;99.90
53053;DHT22;38934;52.690;6.184;2023-08-24T12:10:29;24.20;99.90
53053;DHT22;38934;52.690;6.184;2023-08-24T12:13:04;24.30;99.90
53053;DHT22;38934;52.690;6.184;2023-08-24T12:15:30;24.20;99.90
53053;DHT22;38934;52.690;6.184;2023-08-24T12:18:07;24.50;99.90
53053;DHT22;38934;52.690;6.184;2023-08-24T12:20:33;24.50;99.90
53053;DHT22;38934;52.690;6.184;2023-08-24T12:22:58;24.70;99.90
53053;DHT22;38934;52.690;6.184;2023-08-24T12:25:25;24.70;99.90
53053;DHT22;38934;52.690;6.184;2023-08-24T12:28:08;24.70;99.90
53053;DHT22;38934;52.690;6.184;2023-08-24T12:30:50;24.80;99.90
53053;DHT22;38934;52.690;6.184;2023-08-24T12:33:30;24.90;99.90
53053;DHT22;38934;52.690;6.184;2023-08-24T12:35:59;24.90;99.90
53053;DHT22;38934;52.690;6.184;2023-08-24T12:38:27;25.00;99.90
53053;DHT22;38934;52.690;6.184;2023-08-24T12:40:53;25.00;99.90
53053;DHT22;38934;52.690;6.184;2023-08-24T12:43:19;25.00;99.90
53053;DHT22;38934;52.690;6.184;2023-08-24T12:45:45;25.00;99.90
53053;DHT22;38934;52.690;6.184;2023-08-24T12:48:10;25.10;99.90
53053;DHT22;38934;52.690;6.184;2023-08-24T12:50:38;25.10;99.90
53053;DHT22;38934;52.690;6.184;2023-08-24T12:53:04;25.30;99.90
53053;DHT22;38934;52.690;6.184;2023-08-24T12:55:32;25.50;99.90
53053;DHT22;38934;52.690;6.184;2023-08-24T12:57:57;25.70;99.90
53053;DHT22;38934;52.690;6.184;2023-08-24T13:00:23;25.90;99.90
53053;DHT22;38934;52.690;6.184;2023-08-24T13:02:50;26.00;99.90
53053;DHT22;38934;52.690;6.184;2023-08-24T13:05:16;26.00;99.90
53053;DHT22;38934;52.690;6.184;2023-08-24T13:07:41;25.90;99.90
53053;DHT22;38934;52.690;6.184;2023-08-24T13:10:07;25.90;99.90
53053;DHT22;38934;52.690;6.184;2023-08-24T13:12:34;25.90;99.90
53053;DHT22;38934;52.690;6.184;2023-08-24T13:15:00;26.00;99.90
53053;DHT22;38934;52.690;6.184;2023-08-24T13:17:27;26.00;99.90
53053;DHT22;38934;52.690;6.184;2023-08-24T13:19:52;26.00;99.90
53053;DHT22;38934;52.690;6.184;2023-08-24T13:22:18;25.80;99.90
53053;DHT22;38934;52.690;6.184;2023-08-24T13:24:44;25.60;99.90
53053;DHT22;38934;52.690;6.184;2023-08-24T13:27:10;25.30;99.90
53053;DHT22;38934;52.690;6.184;2023-08-24T13:29:36;25.10;99.90
53053;DHT22;38934;52.690;6.184;2023-08-24T13:32:03;25.00;99.90
53053;DHT22;38934;52.690;6.184;2023-08-24T13:34:28;24.80;99.90
53053;DHT22;38934;52.690;6.184;2023-08-24T13:36:54;24.70;99.90
53053;DHT22;38934;52.690;6.184;2023-08-24T13:39:20;24.60;99.90
53053;DHT22;38934;52.690;6.184;2023-08-24T13:41:45;24.50;99.90
53053;DHT22;38934;52.690;6.184;2023-08-24T13:44:11;24.50;99.90
53053;DHT22;38934;52.690;6.184;2023-08-24T13:46:36;24.30;99.90
53053;DHT22;38934;52.690;6.184;2023-08-24T13:49:02;24.20;99.90
53053;DHT22;38934;52.690;6.184;2023-08-24T13:51:28;24.00;99.90
53053;DHT22;38934;52.690;6.184;2023-08-24T13:53:54;23.90;99.90
53053;DHT22;38934;52.690;6.184;2023-08-24T13:56:20;23.70;99.90
53053;DHT22;38934;52.690;6.184;2023-08-24T13:58:45;23.60;99.90
53053;DHT22;38934;52.690;6.184;2023-08-24T14:01:12;23.50;99.90
53053;DHT22;38934;52.690;6.184;2023-08-24T14:03:39;23.40;99.90
53053;DHT22;38934;52.690;6.184;2023-08-24T14:06:05;23.30;99.90
53053;DHT22;38934;52.690;6.184;2023-08-24T14:08:31;23.40;99.90
53053;DHT22;38934;52.690;6.184;2023-08-24T14:10:57;23.20;99.90
53053;DHT22;38934;52.690;6.184;2023-08-24T14:13:22;23.20;99.90
53053;DHT22;38934;52.690;6.184;2023-08-24T14:15:50;23.20;99.90
53053;DHT22;38934;52.690;6.184;2023-08-24T14:18:16;23.20;99.90
53053;DHT22;38934;52.690;6.184;2023-08-24T14:20:43;23.10;99.90
53053;DHT22;38934;52.690;6.184;2023-08-24T14:23:09;23.10;99.90
53053;DHT22;38934;52.690;6.184;2023-08-24T14:25:34;22.90;99.90
53053;DHT22;38934;52.690;6.184;2023-08-24T14:28:00;22.90;99.90
53053;DHT22;38934;52.690;6.184;2023-08-24T14:30:26;22.80;99.90
53053;DHT22;38934;52.690;6.184;2023-08-24T14:32:52;22.80;99.90
53053;DHT22;38934;52.690;6.184;2023-08-24T14:35:17;22.80;99.90
53053;DHT22;38934;52.690;6.184;2023-08-24T14:37:43;22.70;99.90
53053;DHT22;38934;52.690;6.184;2023-08-24T14:40:09;22.80;99.90
53053;DHT22;38934;52.690;6.184;2023-08-24T14:42:35;22.70;99.90
53053;DHT22;38934;52.690;6.184;2023-08-24T14:45:01;22.70;99.90
53053;DHT22;38934;52.690;6.184;2023-08-24T14:47:27;22.70;99.90
53053;DHT22;38934;52.690;6.184;2023-08-24T14:49:52;22.70;99.90
53053;DHT22;38934;52.690;6.184;2023-08-24T14:52:18;22.70;99.90
53053;DHT22;38934;52.690;6.184;2023-08-24T14:54:43;22.70;99.90
53053;DHT22;38934;52.690;6.184;2023-08-24T14:57:10;22.80;99.90
53053;DHT22;38934;52.690;6.184;2023-08-24T14:59:36;22.80;99.90
53053;DHT22;38934;52.690;6.184;2023-08-24T15:02:01;22.80;99.90
53053;DHT22;38934;52.690;6.184;2023-08-24T15:04:27;22.80;99.90
53053;DHT22;38934;52.690;6.184;2023-08-24T15:06:53;22.90;99.90
53053;DHT22;38934;52.690;6.184;2023-08-24T15:09:19;23.00;99.90
53053;DHT22;38934;52.690;6.184;2023-08-24T15:11:45;23.00;99.90
53053;DHT22;38934;52.690;6.184;2023-08-24T15:14:11;23.10;99.90
53053;DHT22;38934;52.690;6.184;2023-08-24T15:16:36;23.20;99.90
53053;DHT22;38934;52.690;6.184;2023-08-24T15:19:02;23.40;99.90
53053;DHT22;38934;52.690;6.184;2023-08-24T15:21:28;23.20;99.90
53053;DHT22;38934;52.690;6.184;2023-08-24T15:23:54;23.30;99.90
53053;DHT22;38934;52.690;6.184;2023-08-24T15:26:19;23.20;99.90
53053;DHT22;38934;52.690;6.184;2023-08-24T15:31:33;23.30;99.90
53053;DHT22;38934;52.690;6.184;2023-08-24T15:33:58;23.40;99.90
53053;DHT22;38934;52.690;6.184;2023-08-24T15:36:24;23.40;99.90
53053;DHT22;38934;52.690;6.184;2023-08-24T15:38:50;23.40;99.90
53053;DHT22;38934;52.690;6.184;2023-08-24T15:41:15;23.40;99.90